sensor_id;sensor_type;location;lat;lon;timestamp;P1;durP1;ratioP1;P2;durP2;ratioP2
14268;SDS011;7218;51.480;7.006;2023-11-19T00:01:33;4.10;;;3.70;;
14268;SDS011;7218;51.480;7.006;2023-11-19T00:03:59;4.30;;;3.85;;
14268;SDS011;7218;51.480;7.006;2023-11-19T00:06:26;6.95;;;4.15;;
14268;SDS011;7218;51.480;7.006;2023-11-19T00:08:52;4.95;;;4.25;;
14268;SDS011;7218;51.480;7.006;2023-11-19T00:11:19;5.78;;;4.28;;
14268;SDS011;7218;51.480;7.006;2023-11-19T00:13:46;5.10;;;4.70;;
14268;SDS011;7218;51.480;7.006;2023-11-19T00:16:14;5.80;;;4.50;;
14268;SDS011;7218;51.480;7.006;2023-11-19T00:18:41;6.55;;;4.95;;
14268;SDS011;7218;51.480;7.006;2023-11-19T00:21:07;5.25;;;4.63;;
14268;SDS011;7218;51.480;7.006;2023-11-19T00:23:35;5.78;;;5.07;;
14268;SDS011;7218;51.480;7.006;2023-11-19T00:26:01;6.78;;;4.40;;
14268;SDS011;7218;51.480;7.006;2023-11-19T00:28:31;5.00;;;4.50;;
14268;SDS011;7218;51.480;7.006;2023-11-19T00:30:58;4.95;;;4.22;;
14268;SDS011;7218;51.480;7.006;2023-11-19T00:33:26;4.72;;;4.25;;
14268;SDS011;7218;51.480;7.006;2023-11-19T00:35:52;5.63;;;4.82;;
14268;SDS011;7218;51.480;7.006;2023-11-19T00:38:19;4.97;;;4.47;;
14268;SDS011;7218;51.480;7.006;2023-11-19T00:40:46;5.68;;;4.30;;
14268;SDS011;7218;51.480;7.006;2023-11-19T00:43:12;5.60;;;4.40;;
14268;SDS011;7218;51.480;7.006;2023-11-19T00:45:39;5.05;;;4.35;;
14268;SDS011;7218;51.480;7.006;2023-11-19T00:48:05;4.93;;;4.28;;
14268;SDS011;7218;51.480;7.006;2023-11-19T00:50:33;5.03;;;4.55;;
14268;SDS011;7218;51.480;7.006;2023-11-19T00:53:00;4.53;;;4.13;;
14268;SDS011;7218;51.480;7.006;2023-11-19T00:55:28;4.75;;;4.18;;
14268;SDS011;7218;51.480;7.006;2023-11-19T00:57:55;5.00;;;4.50;;
14268;SDS011;7218;51.480;7.006;2023-11-19T01:00:22;6.32;;;4.55;;
14268;SDS011;7218;51.480;7.006;2023-11-19T01:02:49;5.68;;;4.78;;
14268;SDS011;7218;51.480;7.006;2023-11-19T01:05:15;5.10;;;4.45;;
14268;SDS011;7218;51.480;7.006;2023-11-19T01:07:44;4.32;;;3.92;;
14268;SDS011;7218;51.480;7.006;2023-11-19T01:10:10;6.07;;;4.00;;
14268;SDS011;7218;51.480;7.006;2023-11-19T01:12:37;5.82;;;4.18;;
14268;SDS011;7218;51.480;7.006;2023-11-19T01:15:04;4.40;;;4.00;;
14268;SDS011;7218;51.480;7.006;2023-11-19T01:17:31;4.18;;;3.78;;
14268;SDS011;7218;51.480;7.006;2023-11-19T01:19:57;5.00;;;3.58;;
14268;SDS011;7218;51.480;7.006;2023-11-19T01:22:24;4.88;;;4.13;;
14268;SDS011;7218;51.480;7.006;2023-11-19T01:24:52;4.20;;;3.63;;
14268;SDS011;7218;51.480;7.006;2023-11-19T01:27:19;3.88;;;3.45;;
14268;SDS011;7218;51.480;7.006;2023-11-19T01:29:46;3.67;;;3.38;;
14268;SDS011;7218;51.480;7.006;2023-11-19T01:32:12;3.33;;;3.00;;
14268;SDS011;7218;51.480;7.006;2023-11-19T01:34:39;3.35;;;2.97;;
14268;SDS011;7218;51.480;7.006;2023-11-19T01:37:06;3.42;;;3.00;;
14268;SDS011;7218;51.480;7.006;2023-11-19T01:39:34;3.55;;;3.03;;
14268;SDS011;7218;51.480;7.006;2023-11-19T01:42:02;3.72;;;3.10;;
14268;SDS011;7218;51.480;7.006;2023-11-19T01:44:28;3.50;;;3.20;;
14268;SDS011;7218;51.480;7.006;2023-11-19T01:46:55;3.30;;;3.00;;
14268;SDS011;7218;51.480;7.006;2023-11-19T01:49:21;4.35;;;3.10;;
14268;SDS011;7218;51.480;7.006;2023-11-19T01:51:48;3.53;;;2.97;;
14268;SDS011;7218;51.480;7.006;2023-11-19T01:54:15;3.90;;;3.28;;
14268;SDS011;7218;51.480;7.006;2023-11-19T01:56:42;3.35;;;2.80;;
14268;SDS011;7218;51.480;7.006;2023-11-19T01:59:11;3.38;;;3.08;;
14268;SDS011;7218;51.480;7.006;2023-11-19T02:01:39;4.60;;;2.95;;
14268;SDS011;7218;51.480;7.006;2023-11-19T02:04:06;3.35;;;3.05;;
14268;SDS011;7218;51.480;7.006;2023-11-19T02:06:34;5.70;;;3.90;;
14268;SDS011;7218;51.480;7.006;2023-11-19T02:09:02;5.60;;;3.90;;
14268;SDS011;7218;51.480;7.006;2023-11-19T02:11:32;6.07;;;4.00;;
14268;SDS011;7218;51.480;7.006;2023-11-19T02:14:00;4.15;;;3.70;;
14268;SDS011;7218;51.480;7.006;2023-11-19T02:16:29;6.25;;;3.78;;
14268;SDS011;7218;51.480;7.006;2023-11-19T02:18:55;4.65;;;3.60;;
14268;SDS011;7218;51.480;7.006;2023-11-19T02:21:22;5.07;;;4.03;;
14268;SDS011;7218;51.480;7.006;2023-11-19T02:23:48;5.35;;;3.40;;
14268;SDS011;7218;51.480;7.006;2023-11-19T02:26:17;4.70;;;3.40;;
14268;SDS011;7218;51.480;7.006;2023-11-19T02:28:50;6.10;;;3.40;;
14268;SDS011;7218;51.480;7.006;2023-11-19T02:31:17;4.88;;;3.30;;
14268;SDS011;7218;51.480;7.006;2023-11-19T02:33:44;7.75;;;3.28;;
14268;SDS011;7218;51.480;7.006;2023-11-19T02:36:10;5.53;;;2.70;;
14268;SDS011;7218;51.480;7.006;2023-11-19T02:38:37;7.75;;;2.72;;
14268;SDS011;7218;51.480;7.006;2023-11-19T02:41:04;3.95;;;2.47;;
14268;SDS011;7218;51.480;7.006;2023-11-19T02:43:32;6.22;;;2.47;;
14268;SDS011;7218;51.480;7.006;2023-11-19T02:46:01;4.45;;;2.30;;
14268;SDS011;7218;51.480;7.006;2023-11-19T02:48:29;7.20;;;2.50;;
14268;SDS011;7218;51.480;7.006;2023-11-19T02:50:55;7.07;;;2.50;;
14268;SDS011;7218;51.480;7.006;2023-11-19T02:53:23;5.63;;;2.33;;
14268;SDS011;7218;51.480;7.006;2023-11-19T02:55:52;7.55;;;2.40;;
14268;SDS011;7218;51.480;7.006;2023-11-19T02:58:25;6.18;;;2.55;;
14268;SDS011;7218;51.480;7.006;2023-11-19T03:00:53;8.68;;;2.55;;
14268;SDS011;7218;51.480;7.006;2023-11-19T03:03:24;6.65;;;2.45;;
14268;SDS011;7218;51.480;7.006;2023-11-19T03:05:55;7.07;;;2.55;;
14268;SDS011;7218;51.480;7.006;2023-11-19T03:08:22;7.20;;;3.20;;
14268;SDS011;7218;51.480;7.006;2023-11-19T03:10:49;7.03;;;2.40;;
14268;SDS011;7218;51.480;7.006;2023-11-19T03:13:15;9.73;;;2.70;;
14268;SDS011;7218;51.480;7.006;2023-11-19T03:15:43;8.07;;;3.17;;
14268;SDS011;7218;51.480;7.006;2023-11-19T03:18:09;10.48;;;3.20;;
14268;SDS011;7218;51.480;7.006;2023-11-19T03:20:37;9.30;;;2.90;;
14268;SDS011;7218;51.480;7.006;2023-11-19T03:23:04;9.93;;;3.17;;
14268;SDS011;7218;51.480;7.006;2023-11-19T03:25:31;8.05;;;3.17;;
14268;SDS011;7218;51.480;7.006;2023-11-19T03:27:59;7.03;;;2.90;;
14268;SDS011;7218;51.480;7.006;2023-11-19T03:30:26;9.85;;;3.10;;
14268;SDS011;7218;51.480;7.006;2023-11-19T03:32:56;8.98;;;2.83;;
14268;SDS011;7218;51.480;7.006;2023-11-19T03:35:23;7.65;;;2.80;;
14268;SDS011;7218;51.480;7.006;2023-11-19T03:37:51;9.40;;;3.05;;
14268;SDS011;7218;51.480;7.006;2023-11-19T03:40:18;11.23;;;3.33;;
14268;SDS011;7218;51.480;7.006;2023-11-19T03:42:45;9.95;;;2.88;;
14268;SDS011;7218;51.480;7.006;2023-11-19T03:45:10;13.05;;;2.92;;
14268;SDS011;7218;51.480;7.006;2023-11-19T03:47:37;10.93;;;2.92;;
14268;SDS011;7218;51.480;7.006;2023-11-19T03:50:04;11.93;;;3.13;;
14268;SDS011;7218;51.480;7.006;2023-11-19T03:52:32;12.85;;;3.30;;
14268;SDS011;7218;51.480;7.006;2023-11-19T03:55:00;12.35;;;3.22;;
14268;SDS011;7218;51.480;7.006;2023-11-19T03:57:26;15.30;;;3.25;;
14268;SDS011;7218;51.480;7.006;2023-11-19T03:59:53;14.63;;;3.35;;
14268;SDS011;7218;51.480;7.006;2023-11-19T04:02:20;17.55;;;4.10;;
14268;SDS011;7218;51.480;7.006;2023-11-19T04:04:47;12.85;;;3.40;;
14268;SDS011;7218;51.480;7.006;2023-11-19T04:07:14;14.35;;;3.25;;
14268;SDS011;7218;51.480;7.006;2023-11-19T04:09:40;15.35;;;3.22;;
14268;SDS011;7218;51.480;7.006;2023-11-19T04:12:08;13.27;;;3.47;;
14268;SDS011;7218;51.480;7.006;2023-11-19T04:14:36;12.05;;;3.00;;
14268;SDS011;7218;51.480;7.006;2023-11-19T04:17:02;15.40;;;3.28;;
14268;SDS011;7218;51.480;7.006;2023-11-19T04:19:29;19.40;;;3.53;;
14268;SDS011;7218;51.480;7.006;2023-11-19T04:21:57;15.95;;;3.70;;
14268;SDS011;7218;51.480;7.006;2023-11-19T04:24:24;13.20;;;2.95;;
14268;SDS011;7218;51.480;7.006;2023-11-19T04:26:50;15.85;;;3.10;;
14268;SDS011;7218;51.480;7.006;2023-11-19T04:29:18;20.83;;;3.45;;
14268;SDS011;7218;51.480;7.006;2023-11-19T04:31:45;15.20;;;3.28;;
14268;SDS011;7218;51.480;7.006;2023-11-19T04:34:12;13.45;;;3.28;;
14268;SDS011;7218;51.480;7.006;2023-11-19T04:36:38;15.48;;;3.33;;
14268;SDS011;7218;51.480;7.006;2023-11-19T04:39:05;16.10;;;3.85;;
14268;SDS011;7218;51.480;7.006;2023-11-19T04:41:34;17.05;;;3.53;;
14268;SDS011;7218;51.480;7.006;2023-11-19T04:44:01;19.30;;;3.63;;
14268;SDS011;7218;51.480;7.006;2023-11-19T04:46:29;19.52;;;3.70;;
14268;SDS011;7218;51.480;7.006;2023-11-19T04:48:55;18.00;;;3.90;;
14268;SDS011;7218;51.480;7.006;2023-11-19T04:51:21;15.73;;;3.80;;
14268;SDS011;7218;51.480;7.006;2023-11-19T04:53:48;17.65;;;3.60;;
14268;SDS011;7218;51.480;7.006;2023-11-19T04:56:14;21.88;;;3.40;;
14268;SDS011;7218;51.480;7.006;2023-11-19T04:58:44;21.80;;;4.05;;
14268;SDS011;7218;51.480;7.006;2023-11-19T05:01:13;20.70;;;3.88;;
14268;SDS011;7218;51.480;7.006;2023-11-19T05:03:43;23.48;;;4.03;;
14268;SDS011;7218;51.480;7.006;2023-11-19T05:06:10;19.55;;;3.80;;
14268;SDS011;7218;51.480;7.006;2023-11-19T05:08:36;18.98;;;3.92;;
14268;SDS011;7218;51.480;7.006;2023-11-19T05:11:03;20.13;;;4.18;;
14268;SDS011;7218;51.480;7.006;2023-11-19T05:13:31;21.75;;;4.00;;
14268;SDS011;7218;51.480;7.006;2023-11-19T05:15:57;12.18;;;3.38;;
14268;SDS011;7218;51.480;7.006;2023-11-19T05:18:23;16.67;;;3.70;;
14268;SDS011;7218;51.480;7.006;2023-11-19T05:20:51;20.55;;;4.10;;
14268;SDS011;7218;51.480;7.006;2023-11-19T05:23:18;17.63;;;3.92;;
14268;SDS011;7218;51.480;7.006;2023-11-19T05:25:45;19.20;;;4.05;;
14268;SDS011;7218;51.480;7.006;2023-11-19T05:28:12;17.42;;;3.92;;
14268;SDS011;7218;51.480;7.006;2023-11-19T05:30:39;19.95;;;4.22;;
14268;SDS011;7218;51.480;7.006;2023-11-19T05:33:06;24.95;;;4.15;;
14268;SDS011;7218;51.480;7.006;2023-11-19T05:35:33;19.35;;;4.07;;
14268;SDS011;7218;51.480;7.006;2023-11-19T05:38:01;23.73;;;4.38;;
14268;SDS011;7218;51.480;7.006;2023-11-19T05:40:28;20.02;;;4.00;;
14268;SDS011;7218;51.480;7.006;2023-11-19T05:42:55;19.70;;;4.00;;
14268;SDS011;7218;51.480;7.006;2023-11-19T05:45:21;21.15;;;3.80;;
14268;SDS011;7218;51.480;7.006;2023-11-19T05:47:48;20.02;;;4.32;;
14268;SDS011;7218;51.480;7.006;2023-11-19T05:50:14;22.05;;;3.95;;
14268;SDS011;7218;51.480;7.006;2023-11-19T05:52:40;17.30;;;3.63;;
14268;SDS011;7218;51.480;7.006;2023-11-19T05:55:08;19.83;;;4.03;;
14268;SDS011;7218;51.480;7.006;2023-11-19T05:57:35;28.58;;;4.53;;
14268;SDS011;7218;51.480;7.006;2023-11-19T06:00:02;18.30;;;3.85;;
14268;SDS011;7218;51.480;7.006;2023-11-19T06:02:32;22.42;;;4.10;;
14268;SDS011;7218;51.480;7.006;2023-11-19T06:04:58;17.85;;;3.92;;
14268;SDS011;7218;51.480;7.006;2023-11-19T06:07:25;16.27;;;4.00;;
14268;SDS011;7218;51.480;7.006;2023-11-19T06:09:51;19.40;;;4.00;;
14268;SDS011;7218;51.480;7.006;2023-11-19T06:12:19;23.92;;;4.43;;
14268;SDS011;7218;51.480;7.006;2023-11-19T06:14:46;22.90;;;4.35;;
14268;SDS011;7218;51.480;7.006;2023-11-19T06:17:12;21.25;;;3.78;;
14268;SDS011;7218;51.480;7.006;2023-11-19T06:19:39;24.55;;;5.18;;
14268;SDS011;7218;51.480;7.006;2023-11-19T06:22:05;19.48;;;3.65;;
14268;SDS011;7218;51.480;7.006;2023-11-19T06:24:32;18.45;;;3.75;;
14268;SDS011;7218;51.480;7.006;2023-11-19T06:26:58;23.70;;;4.00;;
14268;SDS011;7218;51.480;7.006;2023-11-19T06:29:26;21.63;;;4.38;;
14268;SDS011;7218;51.480;7.006;2023-11-19T06:31:52;21.95;;;4.00;;
14268;SDS011;7218;51.480;7.006;2023-11-19T06:34:19;21.15;;;4.00;;
14268;SDS011;7218;51.480;7.006;2023-11-19T06:36:45;22.73;;;4.00;;
14268;SDS011;7218;51.480;7.006;2023-11-19T06:39:13;21.63;;;4.25;;
14268;SDS011;7218;51.480;7.006;2023-11-19T06:41:43;16.83;;;3.50;;
14268;SDS011;7218;51.480;7.006;2023-11-19T06:44:11;23.98;;;5.30;;
14268;SDS011;7218;51.480;7.006;2023-11-19T06:46:39;23.42;;;5.03;;
14268;SDS011;7218;51.480;7.006;2023-11-19T06:49:05;21.55;;;4.25;;
14268;SDS011;7218;51.480;7.006;2023-11-19T06:51:33;18.83;;;4.38;;
14268;SDS011;7218;51.480;7.006;2023-11-19T06:53:59;22.63;;;4.38;;
14268;SDS011;7218;51.480;7.006;2023-11-19T06:56:26;18.83;;;4.55;;
14268;SDS011;7218;51.480;7.006;2023-11-19T06:58:52;25.98;;;4.55;;
14268;SDS011;7218;51.480;7.006;2023-11-19T07:01:19;20.88;;;4.30;;
14268;SDS011;7218;51.480;7.006;2023-11-19T07:03:47;26.20;;;4.35;;
14268;SDS011;7218;51.480;7.006;2023-11-19T07:06:16;21.98;;;4.57;;
14268;SDS011;7218;51.480;7.006;2023-11-19T07:08:43;27.20;;;5.43;;
14268;SDS011;7218;51.480;7.006;2023-11-19T07:11:10;21.73;;;4.20;;
14268;SDS011;7218;51.480;7.006;2023-11-19T07:13:37;18.25;;;4.15;;
14268;SDS011;7218;51.480;7.006;2023-11-19T07:16:04;24.40;;;5.05;;
14268;SDS011;7218;51.480;7.006;2023-11-19T07:18:34;25.83;;;4.50;;
14268;SDS011;7218;51.480;7.006;2023-11-19T07:21:03;22.58;;;4.15;;
14268;SDS011;7218;51.480;7.006;2023-11-19T07:23:30;22.02;;;4.75;;
14268;SDS011;7218;51.480;7.006;2023-11-19T07:25:58;18.33;;;4.22;;
14268;SDS011;7218;51.480;7.006;2023-11-19T07:28:24;17.92;;;3.97;;
14268;SDS011;7218;51.480;7.006;2023-11-19T07:30:51;22.65;;;4.03;;
14268;SDS011;7218;51.480;7.006;2023-11-19T07:33:17;19.33;;;3.90;;
14268;SDS011;7218;51.480;7.006;2023-11-19T07:35:44;21.55;;;4.15;;
14268;SDS011;7218;51.480;7.006;2023-11-19T07:38:12;22.02;;;3.80;;
14268;SDS011;7218;51.480;7.006;2023-11-19T07:40:38;24.20;;;4.30;;
14268;SDS011;7218;51.480;7.006;2023-11-19T07:43:05;23.75;;;5.03;;
14268;SDS011;7218;51.480;7.006;2023-11-19T07:45:32;25.83;;;4.57;;
14268;SDS011;7218;51.480;7.006;2023-11-19T07:47:59;20.48;;;3.97;;
14268;SDS011;7218;51.480;7.006;2023-11-19T07:50:26;24.95;;;4.55;;
14268;SDS011;7218;51.480;7.006;2023-11-19T07:52:53;21.70;;;4.07;;
14268;SDS011;7218;51.480;7.006;2023-11-19T07:55:21;23.92;;;4.60;;
14268;SDS011;7218;51.480;7.006;2023-11-19T07:57:47;21.42;;;3.90;;
14268;SDS011;7218;51.480;7.006;2023-11-19T08:00:14;23.13;;;3.97;;
14268;SDS011;7218;51.480;7.006;2023-11-19T08:02:41;22.98;;;4.18;;
14268;SDS011;7218;51.480;7.006;2023-11-19T08:05:08;23.80;;;4.63;;
14268;SDS011;7218;51.480;7.006;2023-11-19T08:07:35;23.13;;;4.60;;
14268;SDS011;7218;51.480;7.006;2023-11-19T08:10:01;24.33;;;5.00;;
14268;SDS011;7218;51.480;7.006;2023-11-19T08:12:31;22.65;;;4.53;;
14268;SDS011;7218;51.480;7.006;2023-11-19T08:15:00;22.70;;;4.20;;
14268;SDS011;7218;51.480;7.006;2023-11-19T08:17:26;20.67;;;4.55;;
14268;SDS011;7218;51.480;7.006;2023-11-19T08:19:53;19.73;;;4.13;;
14268;SDS011;7218;51.480;7.006;2023-11-19T08:22:19;25.30;;;4.50;;
14268;SDS011;7218;51.480;7.006;2023-11-19T08:24:47;18.60;;;4.15;;
14268;SDS011;7218;51.480;7.006;2023-11-19T08:27:14;20.25;;;4.00;;
14268;SDS011;7218;51.480;7.006;2023-11-19T08:29:41;19.77;;;4.63;;
14268;SDS011;7218;51.480;7.006;2023-11-19T08:32:08;25.65;;;4.53;;
14268;SDS011;7218;51.480;7.006;2023-11-19T08:34:36;21.27;;;5.00;;
14268;SDS011;7218;51.480;7.006;2023-11-19T08:37:02;28.25;;;5.00;;
14268;SDS011;7218;51.480;7.006;2023-11-19T08:39:29;24.23;;;4.70;;
14268;SDS011;7218;51.480;7.006;2023-11-19T08:41:55;19.52;;;4.97;;
14268;SDS011;7218;51.480;7.006;2023-11-19T08:44:22;28.73;;;4.78;;
14268;SDS011;7218;51.480;7.006;2023-11-19T08:46:51;22.15;;;4.68;;
14268;SDS011;7218;51.480;7.006;2023-11-19T08:49:18;23.00;;;4.57;;
14268;SDS011;7218;51.480;7.006;2023-11-19T08:51:45;25.02;;;4.60;;
14268;SDS011;7218;51.480;7.006;2023-11-19T08:54:11;27.25;;;4.85;;
14268;SDS011;7218;51.480;7.006;2023-11-19T08:56:39;25.27;;;4.93;;
14268;SDS011;7218;51.480;7.006;2023-11-19T08:59:06;25.77;;;4.80;;
14268;SDS011;7218;51.480;7.006;2023-11-19T09:01:33;24.15;;;4.53;;
14268;SDS011;7218;51.480;7.006;2023-11-19T09:04:01;26.42;;;5.32;;
14268;SDS011;7218;51.480;7.006;2023-11-19T09:06:28;22.88;;;4.68;;
14268;SDS011;7218;51.480;7.006;2023-11-19T09:08:54;21.60;;;4.90;;
14268;SDS011;7218;51.480;7.006;2023-11-19T09:11:25;26.42;;;4.80;;
14268;SDS011;7218;51.480;7.006;2023-11-19T09:13:52;24.02;;;4.38;;
14268;SDS011;7218;51.480;7.006;2023-11-19T09:16:18;26.38;;;5.72;;
14268;SDS011;7218;51.480;7.006;2023-11-19T09:18:45;24.67;;;5.25;;
14268;SDS011;7218;51.480;7.006;2023-11-19T09:21:12;22.40;;;4.80;;
14268;SDS011;7218;51.480;7.006;2023-11-19T09:23:39;22.85;;;5.15;;
14268;SDS011;7218;51.480;7.006;2023-11-19T09:26:06;24.17;;;5.10;;
14268;SDS011;7218;51.480;7.006;2023-11-19T09:28:35;22.77;;;4.30;;
14268;SDS011;7218;51.480;7.006;2023-11-19T09:31:01;25.95;;;5.05;;
14268;SDS011;7218;51.480;7.006;2023-11-19T09:33:29;25.30;;;5.10;;
14268;SDS011;7218;51.480;7.006;2023-11-19T09:35:56;23.85;;;4.72;;
14268;SDS011;7218;51.480;7.006;2023-11-19T09:38:24;25.65;;;4.28;;
14268;SDS011;7218;51.480;7.006;2023-11-19T09:40:50;23.67;;;4.63;;
14268;SDS011;7218;51.480;7.006;2023-11-19T09:43:17;22.00;;;5.03;;
14268;SDS011;7218;51.480;7.006;2023-11-19T09:45:45;24.05;;;4.60;;
14268;SDS011;7218;51.480;7.006;2023-11-19T09:48:15;19.48;;;4.45;;
14268;SDS011;7218;51.480;7.006;2023-11-19T09:50:43;26.65;;;5.50;;
14268;SDS011;7218;51.480;7.006;2023-11-19T09:53:10;19.25;;;4.47;;
14268;SDS011;7218;51.480;7.006;2023-11-19T09:55:38;19.52;;;4.28;;
14268;SDS011;7218;51.480;7.006;2023-11-19T09:58:05;19.00;;;3.95;;
14268;SDS011;7218;51.480;7.006;2023-11-19T10:00:33;23.33;;;5.22;;
14268;SDS011;7218;51.480;7.006;2023-11-19T10:02:59;23.08;;;4.78;;
14268;SDS011;7218;51.480;7.006;2023-11-19T10:05:26;21.80;;;4.20;;
14268;SDS011;7218;51.480;7.006;2023-11-19T10:07:52;23.15;;;4.53;;
14268;SDS011;7218;51.480;7.006;2023-11-19T10:10:20;24.10;;;4.95;;
14268;SDS011;7218;51.480;7.006;2023-11-19T10:12:50;21.55;;;5.05;;
14268;SDS011;7218;51.480;7.006;2023-11-19T10:15:19;22.70;;;4.65;;
14268;SDS011;7218;51.480;7.006;2023-11-19T10:17:48;27.38;;;5.25;;
14268;SDS011;7218;51.480;7.006;2023-11-19T10:20:14;25.80;;;4.90;;
14268;SDS011;7218;51.480;7.006;2023-11-19T10:22:41;21.88;;;4.47;;
14268;SDS011;7218;51.480;7.006;2023-11-19T10:25:21;22.25;;;4.97;;
14268;SDS011;7218;51.480;7.006;2023-11-19T10:27:50;24.50;;;5.93;;
14268;SDS011;7218;51.480;7.006;2023-11-19T10:30:17;23.67;;;4.80;;
14268;SDS011;7218;51.480;7.006;2023-11-19T10:32:44;18.08;;;4.47;;
14268;SDS011;7218;51.480;7.006;2023-11-19T10:35:11;23.80;;;5.05;;
14268;SDS011;7218;51.480;7.006;2023-11-19T10:37:38;21.25;;;4.47;;
14268;SDS011;7218;51.480;7.006;2023-11-19T10:40:06;19.60;;;4.30;;
14268;SDS011;7218;51.480;7.006;2023-11-19T10:42:35;20.25;;;4.78;;
14268;SDS011;7218;51.480;7.006;2023-11-19T10:45:03;25.48;;;4.82;;
14268;SDS011;7218;51.480;7.006;2023-11-19T10:47:30;21.75;;;4.68;;
14268;SDS011;7218;51.480;7.006;2023-11-19T10:49:58;21.08;;;4.40;;
14268;SDS011;7218;51.480;7.006;2023-11-19T10:52:25;19.35;;;4.43;;
14268;SDS011;7218;51.480;7.006;2023-11-19T10:54:53;27.10;;;4.95;;
14268;SDS011;7218;51.480;7.006;2023-11-19T10:57:25;14.18;;;3.83;;
14268;SDS011;7218;51.480;7.006;2023-11-19T11:00:00;21.15;;;5.05;;
14268;SDS011;7218;51.480;7.006;2023-11-19T11:02:29;19.83;;;4.20;;
14268;SDS011;7218;51.480;7.006;2023-11-19T11:05:01;16.00;;;3.85;;
14268;SDS011;7218;51.480;7.006;2023-11-19T11:07:28;16.02;;;4.05;;
14268;SDS011;7218;51.480;7.006;2023-11-19T11:09:57;21.05;;;4.38;;
14268;SDS011;7218;51.480;7.006;2023-11-19T11:12:25;18.88;;;4.28;;
14268;SDS011;7218;51.480;7.006;2023-11-19T11:14:52;22.25;;;4.47;;
14268;SDS011;7218;51.480;7.006;2023-11-19T11:17:20;17.13;;;4.25;;
14268;SDS011;7218;51.480;7.006;2023-11-19T11:19:53;23.85;;;4.70;;
14268;SDS011;7218;51.480;7.006;2023-11-19T11:22:20;19.90;;;3.90;;
14268;SDS011;7218;51.480;7.006;2023-11-19T11:24:53;20.30;;;4.50;;
14268;SDS011;7218;51.480;7.006;2023-11-19T11:27:39;18.95;;;4.13;;
14268;SDS011;7218;51.480;7.006;2023-11-19T11:30:20;24.08;;;4.60;;
14268;SDS011;7218;51.480;7.006;2023-11-19T11:32:58;22.92;;;4.70;;
14268;SDS011;7218;51.480;7.006;2023-11-19T11:35:41;18.88;;;4.32;;
14268;SDS011;7218;51.480;7.006;2023-11-19T11:38:16;20.95;;;4.18;;
14268;SDS011;7218;51.480;7.006;2023-11-19T11:40:55;18.52;;;4.65;;
14268;SDS011;7218;51.480;7.006;2023-11-19T11:43:44;23.48;;;4.47;;
14268;SDS011;7218;51.480;7.006;2023-11-19T11:49:11;23.40;;;4.68;;
14268;SDS011;7218;51.480;7.006;2023-11-19T11:54:26;20.63;;;4.35;;
14268;SDS011;7218;51.480;7.006;2023-11-19T11:57:00;22.63;;;4.28;;
14268;SDS011;7218;51.480;7.006;2023-11-19T11:59:45;19.85;;;4.20;;
14268;SDS011;7218;51.480;7.006;2023-11-19T12:02:14;17.50;;;3.90;;
14268;SDS011;7218;51.480;7.006;2023-11-19T12:04:42;17.92;;;4.30;;
14268;SDS011;7218;51.480;7.006;2023-11-19T12:07:14;17.17;;;4.90;;
14268;SDS011;7218;51.480;7.006;2023-11-19T12:09:46;18.95;;;4.22;;
14268;SDS011;7218;51.480;7.006;2023-11-19T12:12:21;21.58;;;4.13;;
14268;SDS011;7218;51.480;7.006;2023-11-19T12:15:04;19.40;;;4.57;;
14268;SDS011;7218;51.480;7.006;2023-11-19T12:20:23;18.75;;;4.38;;
14268;SDS011;7218;51.480;7.006;2023-11-19T12:22:52;14.35;;;3.53;;
14268;SDS011;7218;51.480;7.006;2023-11-19T12:25:19;16.50;;;3.67;;
14268;SDS011;7218;51.480;7.006;2023-11-19T12:27:47;18.10;;;4.15;;
14268;SDS011;7218;51.480;7.006;2023-11-19T12:30:16;13.32;;;3.22;;
14268;SDS011;7218;51.480;7.006;2023-11-19T12:32:45;15.50;;;3.70;;
14268;SDS011;7218;51.480;7.006;2023-11-19T12:35:12;16.70;;;3.38;;
14268;SDS011;7218;51.480;7.006;2023-11-19T12:37:39;16.20;;;3.78;;
14268;SDS011;7218;51.480;7.006;2023-11-19T12:40:12;16.13;;;3.72;;
14268;SDS011;7218;51.480;7.006;2023-11-19T12:42:40;21.70;;;4.22;;
14268;SDS011;7218;51.480;7.006;2023-11-19T12:45:07;20.40;;;3.85;;
14268;SDS011;7218;51.480;7.006;2023-11-19T12:47:35;16.60;;;4.18;;
14268;SDS011;7218;51.480;7.006;2023-11-19T12:50:02;17.50;;;3.90;;
14268;SDS011;7218;51.480;7.006;2023-11-19T12:52:29;17.73;;;3.85;;
14268;SDS011;7218;51.480;7.006;2023-11-19T12:54:55;19.92;;;4.47;;
14268;SDS011;7218;51.480;7.006;2023-11-19T12:57:36;22.98;;;5.63;;
14268;SDS011;7218;51.480;7.006;2023-11-19T13:00:04;26.00;;;9.05;;
14268;SDS011;7218;51.480;7.006;2023-11-19T13:02:47;17.80;;;4.57;;
14268;SDS011;7218;51.480;7.006;2023-11-19T13:05:24;22.85;;;6.35;;
14268;SDS011;7218;51.480;7.006;2023-11-19T13:07:57;15.77;;;4.25;;
14268;SDS011;7218;51.480;7.006;2023-11-19T13:10:25;21.63;;;3.55;;
14268;SDS011;7218;51.480;7.006;2023-11-19T13:13:05;17.75;;;3.47;;
14268;SDS011;7218;51.480;7.006;2023-11-19T13:15:34;10.35;;;2.33;;
14268;SDS011;7218;51.480;7.006;2023-11-19T13:18:01;14.15;;;3.38;;
14268;SDS011;7218;51.480;7.006;2023-11-19T13:20:28;9.20;;;2.60;;
14268;SDS011;7218;51.480;7.006;2023-11-19T13:22:57;10.20;;;3.53;;
14268;SDS011;7218;51.480;7.006;2023-11-19T13:25:24;11.98;;;3.22;;
14268;SDS011;7218;51.480;7.006;2023-11-19T13:27:51;12.80;;;4.22;;
14268;SDS011;7218;51.480;7.006;2023-11-19T13:30:19;12.85;;;3.40;;
14268;SDS011;7218;51.480;7.006;2023-11-19T13:32:47;15.25;;;3.47;;
14268;SDS011;7218;51.480;7.006;2023-11-19T13:35:14;13.38;;;3.95;;
14268;SDS011;7218;51.480;7.006;2023-11-19T13:37:41;13.15;;;3.97;;
14268;SDS011;7218;51.480;7.006;2023-11-19T13:40:08;15.32;;;3.33;;
14268;SDS011;7218;51.480;7.006;2023-11-19T13:42:39;14.68;;;3.83;;
14268;SDS011;7218;51.480;7.006;2023-11-19T13:45:07;18.67;;;5.25;;
14268;SDS011;7218;51.480;7.006;2023-11-19T13:47:38;14.93;;;3.47;;
14268;SDS011;7218;51.480;7.006;2023-11-19T13:50:06;15.48;;;3.38;;
14268;SDS011;7218;51.480;7.006;2023-11-19T13:52:34;15.63;;;3.60;;
14268;SDS011;7218;51.480;7.006;2023-11-19T13:55:02;15.02;;;4.28;;
14268;SDS011;7218;51.480;7.006;2023-11-19T13:57:29;18.60;;;5.03;;
14268;SDS011;7218;51.480;7.006;2023-11-19T13:59:56;16.08;;;4.07;;
14268;SDS011;7218;51.480;7.006;2023-11-19T14:02:22;15.40;;;3.72;;
14268;SDS011;7218;51.480;7.006;2023-11-19T14:04:50;14.13;;;3.42;;
14268;SDS011;7218;51.480;7.006;2023-11-19T14:07:17;16.55;;;3.92;;
14268;SDS011;7218;51.480;7.006;2023-11-19T14:09:43;18.00;;;4.22;;
14268;SDS011;7218;51.480;7.006;2023-11-19T14:12:10;16.10;;;3.83;;
14268;SDS011;7218;51.480;7.006;2023-11-19T14:14:37;18.65;;;4.10;;
14268;SDS011;7218;51.480;7.006;2023-11-19T14:17:04;13.73;;;3.88;;
14268;SDS011;7218;51.480;7.006;2023-11-19T14:19:31;14.43;;;3.88;;
14268;SDS011;7218;51.480;7.006;2023-11-19T14:21:59;17.73;;;4.47;;
14268;SDS011;7218;51.480;7.006;2023-11-19T14:24:26;13.95;;;3.60;;
14268;SDS011;7218;51.480;7.006;2023-11-19T14:26:52;16.13;;;3.80;;
14268;SDS011;7218;51.480;7.006;2023-11-19T14:29:19;16.70;;;3.72;;
14268;SDS011;7218;51.480;7.006;2023-11-19T14:31:45;13.00;;;3.50;;
14268;SDS011;7218;51.480;7.006;2023-11-19T14:34:11;17.65;;;3.60;;
14268;SDS011;7218;51.480;7.006;2023-11-19T14:36:38;11.90;;;3.58;;
14268;SDS011;7218;51.480;7.006;2023-11-19T14:39:06;17.55;;;3.85;;
14268;SDS011;7218;51.480;7.006;2023-11-19T14:41:32;19.90;;;4.57;;
14268;SDS011;7218;51.480;7.006;2023-11-19T14:43:59;13.80;;;3.25;;
14268;SDS011;7218;51.480;7.006;2023-11-19T14:46:26;19.95;;;3.88;;
14268;SDS011;7218;51.480;7.006;2023-11-19T14:48:53;18.23;;;3.85;;
14268;SDS011;7218;51.480;7.006;2023-11-19T14:51:19;12.95;;;3.05;;
14268;SDS011;7218;51.480;7.006;2023-11-19T14:53:46;14.02;;;3.40;;
14268;SDS011;7218;51.480;7.006;2023-11-19T14:56:14;19.52;;;3.60;;
14268;SDS011;7218;51.480;7.006;2023-11-19T14:58:41;14.00;;;3.25;;
14268;SDS011;7218;51.480;7.006;2023-11-19T15:01:11;14.95;;;3.05;;
14268;SDS011;7218;51.480;7.006;2023-11-19T15:03:38;19.25;;;3.65;;